EIDWEGMC

Guest
Details From EIDW - Dublin
To EGMC - Southend
Flight Number -
Tags Generated
Created
Modified
Stats Distance 278 nm / 514 km
Max Altitude 0 ft / 0 m
Waypoints 3
Social Downloads 4
Likes 0
Share VATSIM

Download

Looking for another format? Having issues loading an existing format? Contact us
Advertisement - Login to hide

Notes

Generated

Route

EIDW GILDA EGMC

ID Type Via Altitude Latitude Longitude Leg Dist Tot Dist Heading (true) Name
O EIDW APT - 0 ft / 0 m 53.43655˚ -6.26227˚ - 0 nm - -
GILDA FIX - 0 ft / 0 m 51.60167˚ 0.58361˚ 273 nm 273 nm 111° / 116° -
O EGMC APT - 0 ft / 0 m 51.56725˚ 0.68627˚ 4 nm 277 nm 118° / 118° -

Altitude Profile

Advertisement - Login to hide

Weather


0- 5 10 15 20 25 30 35+ Temperature / ° C

Clouds and Precipitation
Forecast for 2017-12-18 00:00 UTC. Updated 39 minutes ago

Ground ~20,000 ft ~40,000 ft Winds

EIDW

Details ICAO EIDW (DUB)
Name Dublin
Region Ireland
Timezone Europe/Dublin (UTC+0.0)
Stats Elevation 242 ft / 74 m (AMSL)
Location 53.428264° -6.259550°
Runways 3
Magnetic Variation 3.021° W

METAR

EIDW 172330Z 28007KT 9999 FEW016 SCT250 04/03 Q1025 NOSIG

Decode

TAF

TAF EIDW 172300Z 1800/1824 28007KT 9999 FEW012 SCT040 PROB30 TEMPO 1803/1810 4000 BR BECMG 1809/1812 22005KT BECMG 1818/1821 SCT010 BKN015 TEMPO 1821/1824 4000 BR -DZ BKN006

Decode

Departure Runways

ID Width Length Bearing (true) Bearing (mag) Surface Threshold Offset Overrun Length
10 148 ft / 45 m 8,625 ft / 2,629 m 95.25° 98.27° Concrete 0 ft / 0 m 0 ft / 0 m
11 200 ft / 61 m 4,380 ft / 1,335 m 105.01° 108.03° Asphalt 279 ft / 85 m 0 ft / 0 m
16 200 ft / 61 m 6,791 ft / 2,070 m 156.64° 159.66° Asphalt 0 ft / 0 m 0 ft / 0 m
28 148 ft / 45 m 8,625 ft / 2,629 m 275.28° 278.30° Concrete 0 ft / 0 m 0 ft / 0 m
29 200 ft / 61 m 4,380 ft / 1,335 m 285.02° 288.04° Asphalt 0 ft / 0 m 0 ft / 0 m
34 200 ft / 61 m 6,791 ft / 2,070 m 336.65° 339.67° Asphalt 0 ft / 0 m 0 ft / 0 m

EGMC

Details ICAO EGMC (SEN)
Name Southend
Region United Kingdom
Timezone Europe/London (UTC+0.0)
Stats Elevation 49 ft / 15 m (AMSL)
Location 51.571443° 0.695583°
Runways 1
Magnetic Variation 0.170° W

METAR

EGMC 172250Z 28009KT 9999 FEW019 09/07 Q1019

Decode

TAF

Not found

Destination Runways

ID Width Length Bearing (true) Bearing (mag) Surface Threshold Offset Overrun Length
06 121 ft / 37 m 5,230 ft / 1,594 m 54.10° 54.27° Asphalt 558 ft / 170 m 0 ft / 0 m
24 121 ft / 37 m 5,230 ft / 1,594 m 234.11° 234.28° Asphalt 466 ft / 142 m 0 ft / 0 m

Approach Navaids

Runway Type Ident Frequency Range Bearing (true) Bearing (mag) Slope Elevation
24 Localiser IND 111.35 MHz 18 nm / 33 km 234.08° 234.25° - 49 ft / 15 m (AMSL)
24 Glidescope IND 111.35 MHz 10 nm / 19 km 234.10° 234.27° 3.50° 49 ft / 15 m (AMSL)
24 DME IND 111.35 MHz 18 nm / 33 km - - - 49 ft / 15 m (AMSL)

Popular Alternatives